createdAt,value
2023-11-12T00:00:09.292Z,5.40
2023-11-12T00:02:36.043Z,5.40
2023-11-12T00:05:02.970Z,5.40
2023-11-12T00:07:29.785Z,5.30
2023-11-12T00:09:56.659Z,5.30
2023-11-12T00:12:23.859Z,5.30
2023-11-12T00:14:51.525Z,5.30
2023-11-12T00:17:18.512Z,5.30
2023-11-12T00:19:45.347Z,5.20
2023-11-12T00:22:13.190Z,5.10
2023-11-12T00:24:40.542Z,5.10
2023-11-12T00:27:08.421Z,5.00
2023-11-12T00:29:36.187Z,4.90
2023-11-12T00:32:05.269Z,4.80
2023-11-12T00:34:32.213Z,4.70
2023-11-12T00:36:59.007Z,4.60
2023-11-12T00:39:27.378Z,4.50
2023-11-12T00:41:54.479Z,4.50
2023-11-12T00:44:22.330Z,4.40
2023-11-12T00:46:49.137Z,4.40
2023-11-12T00:49:15.946Z,4.50
2023-11-12T00:51:42.763Z,4.50
2023-11-12T00:54:11.192Z,4.50
2023-11-12T00:56:38.011Z,4.50
2023-11-12T00:59:06.537Z,4.60
2023-11-12T01:01:33.479Z,4.60
2023-11-12T01:04:01.968Z,4.70
2023-11-12T01:06:28.832Z,4.70
2023-11-12T01:08:55.593Z,4.80
2023-11-12T01:11:22.478Z,4.90
2023-11-12T01:13:49.309Z,4.80
2023-11-12T01:16:16.580Z,4.90
2023-11-12T01:18:43.444Z,4.90
2023-11-12T01:21:10.811Z,5.00
2023-11-12T01:23:38.143Z,5.00
2023-11-12T01:26:05.400Z,5.10
2023-11-12T01:28:35.190Z,5.10
2023-11-12T01:31:04.956Z,5.20
2023-11-12T01:33:32.539Z,5.20
2023-11-12T01:36:00.298Z,5.20
2023-11-12T01:38:27.163Z,5.30
2023-11-12T01:40:55.704Z,5.30
2023-11-12T01:43:22.761Z,5.30
2023-11-12T01:45:50.731Z,5.40
2023-11-12T01:48:17.968Z,5.40
2023-11-12T01:50:44.897Z,5.40
2023-11-12T01:53:15.750Z,5.40
2023-11-12T01:55:43.228Z,5.50
2023-11-12T01:58:13.185Z,5.50
2023-11-12T02:00:41.029Z,5.50
2023-11-12T02:03:10.678Z,5.50
2023-11-12T02:05:37.542Z,5.50
2023-11-12T02:08:06.268Z,5.50
2023-11-12T02:10:37.156Z,5.50
2023-11-12T02:13:08.259Z,5.40
2023-11-12T02:15:35.963Z,5.30
2023-11-12T02:18:02.999Z,5.30
2023-11-12T02:20:29.808Z,5.40
2023-11-12T02:22:56.680Z,5.40
2023-11-12T02:25:23.566Z,5.30
2023-11-12T02:27:50.400Z,5.30
2023-11-12T02:30:20.007Z,5.30
2023-11-12T02:32:48.335Z,5.30
2023-11-12T02:35:15.438Z,5.30
2023-11-12T02:37:42.409Z,5.30
2023-11-12T02:40:09.901Z,5.20
2023-11-12T02:42:38.314Z,5.20
2023-11-12T02:45:12.156Z,5.10
2023-11-12T02:47:39.085Z,5.10
2023-11-12T02:50:34.216Z,5.00
2023-11-12T02:53:04.159Z,4.90
2023-11-12T02:55:32.904Z,4.90
2023-11-12T02:58:00.606Z,4.90
2023-11-12T03:00:31.206Z,4.90
2023-11-12T03:02:59.920Z,4.90
2023-11-12T03:05:28.143Z,4.90
2023-11-12T03:07:55.458Z,4.90
2023-11-12T03:10:22.891Z,4.90
2023-11-12T03:12:49.841Z,4.90
2023-11-12T03:15:17.792Z,4.90
2023-11-12T03:17:45.125Z,4.90
2023-11-12T03:20:14.750Z,4.90
2023-11-12T03:22:43.337Z,4.90
2023-11-12T03:25:10.979Z,4.90
2023-11-12T03:27:38.288Z,4.90
2023-11-12T03:30:06.375Z,4.80
2023-11-12T03:32:33.485Z,4.90
2023-11-12T03:35:01.922Z,4.90
2023-11-12T03:37:29.023Z,4.80
2023-11-12T03:39:57.490Z,4.80
2023-11-12T03:42:26.558Z,4.70
2023-11-12T03:44:53.410Z,4.70
2023-11-12T03:47:20.436Z,4.70
2023-11-12T03:49:47.246Z,4.70
2023-11-12T03:52:14.072Z,4.60
2023-11-12T03:54:42.543Z,4.60
2023-11-12T03:57:10.606Z,4.50
2023-11-12T03:59:37.856Z,4.50
2023-11-12T04:02:05.799Z,4.40
2023-11-12T04:04:33.365Z,4.40
2023-11-12T04:07:00.380Z,4.30
2023-11-12T04:09:27.258Z,4.30
2023-11-12T04:11:54.495Z,4.20
2023-11-12T04:14:21.558Z,4.10
2023-11-12T04:16:48.389Z,4.10
2023-11-12T04:19:15.224Z,3.90
2023-11-12T04:21:47.676Z,3.90
2023-11-12T04:24:14.908Z,3.80
2023-11-12T04:26:43.407Z,3.70
2023-11-12T04:29:12.482Z,3.70
2023-11-12T04:31:40.804Z,3.60
2023-11-12T04:34:08.141Z,3.50
2023-11-12T04:36:36.533Z,3.50
2023-11-12T04:39:04.611Z,3.50
2023-11-12T04:41:31.413Z,3.50
2023-11-12T04:43:58.492Z,3.50
2023-11-12T04:46:26.417Z,3.50
2023-11-12T04:48:53.470Z,3.50
2023-11-12T04:51:20.968Z,3.50
2023-11-12T04:53:47.874Z,3.60
2023-11-12T04:56:15.055Z,3.70
2023-11-12T04:58:41.886Z,3.80
2023-11-12T05:01:08.709Z,3.90
2023-11-12T05:03:37.936Z,4.00
2023-11-12T05:06:05.234Z,4.10
2023-11-12T05:08:32.164Z,4.20
2023-11-12T05:10:59.010Z,4.30
2023-11-12T05:13:26.551Z,4.30
2023-11-12T05:15:53.358Z,4.40
2023-11-12T05:18:23.113Z,4.50
2023-11-12T05:20:49.900Z,4.50
2023-11-12T05:23:17.616Z,4.50
2023-11-12T05:25:46.324Z,4.60
2023-11-12T05:28:13.296Z,4.60
2023-11-12T05:30:40.827Z,4.70
2023-11-12T05:33:07.703Z,4.70
2023-11-12T05:35:34.519Z,4.70
2023-11-12T05:38:01.328Z,4.60
2023-11-12T05:40:30.202Z,4.60
2023-11-12T05:42:57.243Z,4.60
2023-11-12T05:45:24.088Z,4.50
2023-11-12T05:47:51.059Z,4.50
2023-11-12T05:50:17.890Z,4.40
2023-11-12T05:52:44.773Z,4.30
2023-11-12T05:55:12.720Z,4.20
2023-11-12T05:57:39.587Z,4.30
2023-11-12T06:00:08.891Z,4.00
2023-11-12T06:02:36.039Z,3.90
2023-11-12T06:05:04.724Z,3.80
2023-11-12T06:07:31.713Z,3.70
2023-11-12T06:09:58.486Z,3.70
2023-11-12T06:12:25.275Z,3.60
2023-11-12T06:14:52.071Z,3.60
2023-11-12T06:17:18.847Z,3.60
2023-11-12T06:19:45.710Z,3.50
2023-11-12T06:22:12.530Z,3.50
2023-11-12T06:24:39.350Z,3.50
2023-11-12T06:27:06.171Z,3.40
2023-11-12T06:29:33.033Z,3.40
2023-11-12T06:31:59.873Z,3.30
2023-11-12T06:34:26.707Z,3.30
2023-11-12T06:36:56.284Z,3.20
2023-11-12T06:39:23.072Z,3.10
2023-11-12T06:41:49.857Z,3.10
2023-11-12T06:44:16.674Z,3.10
2023-11-12T06:46:46.974Z,3.20
2023-11-12T06:49:13.801Z,3.20
2023-11-12T06:51:40.679Z,3.30
2023-11-12T06:54:08.567Z,3.40
2023-11-12T06:56:35.356Z,3.50
2023-11-12T06:59:23.329Z,3.60
2023-11-12T07:01:50.253Z,3.70
2023-11-12T07:04:18.779Z,3.80
2023-11-12T07:07:00.951Z,3.90
2023-11-12T07:09:32.564Z,4.00
2023-11-12T07:11:59.371Z,4.20
2023-11-12T07:14:27.070Z,4.30
2023-11-12T07:16:54.578Z,4.40
2023-11-12T07:19:21.577Z,4.50
2023-11-12T07:21:48.480Z,4.50
2023-11-12T07:24:15.453Z,4.60
2023-11-12T07:26:43.509Z,4.70
2023-11-12T07:29:14.721Z,4.80
2023-11-12T07:31:44.094Z,4.90
2023-11-12T07:34:11.079Z,5.00
2023-11-12T07:36:38.485Z,5.10
2023-11-12T07:39:05.385Z,5.20
2023-11-12T07:41:35.703Z,5.30
2023-11-12T07:44:03.466Z,5.40
2023-11-12T07:46:30.323Z,5.50
2023-11-12T07:48:57.984Z,5.50
2023-11-12T07:51:24.810Z,5.60
2023-11-12T07:53:51.941Z,5.70
2023-11-12T07:56:18.791Z,5.80
2023-11-12T07:58:47.115Z,5.80
2023-11-12T08:01:13.946Z,5.90
2023-11-12T08:03:40.817Z,5.90
2023-11-12T08:06:10.508Z,6.00
2023-11-12T08:08:37.821Z,6.20
2023-11-12T08:11:04.944Z,6.20
2023-11-12T08:13:31.837Z,6.40
2023-11-12T08:15:58.700Z,6.50
2023-11-12T08:18:26.771Z,6.60
2023-11-12T08:20:55.833Z,6.70
2023-11-12T08:23:22.853Z,6.80
2023-11-12T08:25:49.634Z,6.90
2023-11-12T08:28:19.728Z,6.90
2023-11-12T08:30:47.908Z,7.10
2023-11-12T08:33:14.778Z,7.20
2023-11-12T08:35:42.739Z,7.30
2023-11-12T08:38:09.609Z,7.40
2023-11-12T08:40:42.639Z,7.60
2023-11-12T08:43:10.919Z,7.70
2023-11-12T08:45:37.811Z,7.70
2023-11-12T08:48:05.209Z,7.80
2023-11-12T08:50:32.167Z,7.80
2023-11-12T08:53:00.782Z,7.90
2023-11-12T08:55:28.100Z,7.90
2023-11-12T08:57:54.953Z,8.00
2023-11-12T09:00:22.143Z,8.10
2023-11-12T09:02:49.064Z,8.10
2023-11-12T09:05:15.930Z,8.10
2023-11-12T09:07:42.914Z,8.00
2023-11-12T09:10:09.954Z,8.00
2023-11-12T09:12:36.808Z,8.00
2023-11-12T09:15:05.209Z,8.10
2023-11-12T09:17:32.032Z,8.30
2023-11-12T09:19:58.876Z,8.20
2023-11-12T09:22:25.663Z,8.20
2023-11-12T09:25:03.954Z,8.20
2023-11-12T09:27:36.131Z,8.20
2023-11-12T09:30:03.972Z,8.20
2023-11-12T09:32:31.142Z,8.30
2023-11-12T09:34:58.116Z,8.20
2023-11-12T09:37:24.898Z,8.30
2023-11-12T09:39:51.686Z,8.50
2023-11-12T09:42:23.503Z,8.50
2023-11-12T09:44:54.608Z,8.50
2023-11-12T09:47:42.184Z,8.50
2023-11-12T09:50:11.659Z,8.40
2023-11-12T09:52:38.525Z,8.50
2023-11-12T09:55:07.763Z,8.60
2023-11-12T09:57:34.837Z,8.70
2023-11-12T10:00:04.397Z,8.90
2023-11-12T10:02:34.928Z,8.90
2023-11-12T10:05:05.625Z,8.80
2023-11-12T10:07:32.462Z,8.70
2023-11-12T10:10:23.980Z,8.70
2023-11-12T10:12:53.306Z,8.60
2023-11-12T10:15:31.857Z,8.60
2023-11-12T10:18:01.163Z,8.70
2023-11-12T10:20:42.500Z,8.90
2023-11-12T10:23:32.626Z,8.90
2023-11-12T10:26:00.632Z,8.90
2023-11-12T10:28:35.055Z,8.90
2023-11-12T10:31:02.015Z,8.90
2023-11-12T10:33:29.031Z,9.00
2023-11-12T10:35:59.560Z,9.00
2023-11-12T10:38:26.372Z,9.10
2023-11-12T10:41:08.554Z,9.30
2023-11-12T10:43:37.015Z,9.30
2023-11-12T10:46:06.070Z,9.50
2023-11-12T10:48:38.415Z,9.70
2023-11-12T10:51:11.433Z,9.80
2023-11-12T10:53:42.431Z,9.80
2023-11-12T10:56:10.989Z,9.90
2023-11-12T10:58:37.850Z,10.10
2023-11-12T11:01:08.192Z,10.20
2023-11-12T11:03:35.840Z,10.40
2023-11-12T11:06:03.123Z,10.40
2023-11-12T11:08:31.886Z,10.50
2023-11-12T11:11:02.233Z,10.60
2023-11-12T11:13:30.062Z,10.80
2023-11-12T11:15:58.175Z,10.90
2023-11-12T11:18:34.893Z,11.20
2023-11-12T11:21:09.949Z,11.30
2023-11-12T11:23:42.877Z,11.40
2023-11-12T11:26:40.525Z,11.40
2023-11-12T11:29:08.618Z,11.30
2023-11-12T11:31:37.916Z,11.20
2023-11-12T11:34:07.394Z,11.20
2023-11-12T11:36:35.704Z,11.40
2023-11-12T11:39:12.163Z,11.30
2023-11-12T11:41:54.585Z,11.50
2023-11-12T11:44:40.241Z,11.60
2023-11-12T11:47:15.780Z,11.60
2023-11-12T11:49:47.132Z,11.70
2023-11-12T11:52:25.157Z,11.90
2023-11-12T11:55:06.031Z,12.20
2023-11-12T11:57:33.637Z,12.40
2023-11-12T12:00:01.977Z,12.40
2023-11-12T12:02:29.690Z,12.40
2023-11-12T12:04:59.198Z,12.60
2023-11-12T12:07:28.312Z,12.80
2023-11-12T12:09:59.536Z,13.10
2023-11-12T12:12:27.665Z,13.10
2023-11-12T12:14:56.314Z,12.70
2023-11-12T12:17:23.753Z,12.10
2023-11-12T12:19:57.143Z,11.60
2023-11-12T12:22:28.855Z,11.10
2023-11-12T12:24:58.392Z,10.80
2023-11-12T12:27:26.150Z,10.60
2023-11-12T12:29:54.325Z,10.50
2023-11-12T12:32:25.188Z,10.40
2023-11-12T12:35:01.910Z,10.00
2023-11-12T12:37:31.519Z,9.90
2023-11-12T12:40:04.113Z,9.80
2023-11-12T12:42:32.125Z,10.10
2023-11-12T12:44:59.512Z,10.60
2023-11-12T12:47:37.614Z,10.80
2023-11-12T12:50:31.160Z,11.10
2023-11-12T12:53:23.428Z,11.10
2023-11-12T12:55:52.680Z,11.20
2023-11-12T12:58:20.576Z,11.00
2023-11-12T13:00:47.485Z,10.80
2023-11-12T13:03:27.908Z,10.80
2023-11-12T13:05:56.778Z,10.90
2023-11-12T13:08:24.402Z,11.20
2023-11-12T13:10:51.786Z,11.40
2023-11-12T13:13:18.768Z,11.80
2023-11-12T13:15:48.843Z,12.00
2023-11-12T13:18:15.870Z,12.10
2023-11-12T13:20:45.725Z,12.30
2023-11-12T13:23:12.766Z,12.20
2023-11-12T13:25:39.650Z,11.80
2023-11-12T13:28:09.960Z,11.70
2023-11-12T13:30:37.573Z,11.20
2023-11-12T13:33:05.144Z,10.80
2023-11-12T13:35:33.192Z,10.60
2023-11-12T13:38:00.017Z,10.30
2023-11-12T13:40:26.853Z,9.80
2023-11-12T13:43:03.275Z,9.60
2023-11-12T13:45:31.627Z,9.40
2023-11-12T13:47:58.506Z,9.20
2023-11-12T13:50:29.214Z,9.10
2023-11-12T13:52:59.172Z,9.10
2023-11-12T13:55:29.019Z,9.10
2023-11-12T13:57:56.796Z,9.00
2023-11-12T14:00:30.902Z,8.90
2023-11-12T14:02:58.801Z,8.80
2023-11-12T14:05:27.836Z,8.80
2023-11-12T14:07:57.767Z,8.80
2023-11-12T14:10:25.916Z,8.70
2023-11-12T14:12:53.033Z,8.70
2023-11-12T14:15:20.551Z,8.70
2023-11-12T14:17:47.528Z,8.60
2023-11-12T14:20:22.620Z,8.50
2023-11-12T14:22:49.894Z,8.40
2023-11-12T14:25:20.007Z,8.40
2023-11-12T14:27:49.615Z,8.40
2023-11-12T14:30:20.482Z,8.30
2023-11-12T14:32:48.399Z,8.20
2023-11-12T14:35:18.004Z,8.10
2023-11-12T14:37:48.387Z,8.10
2023-11-12T14:40:17.551Z,8.00
2023-11-12T14:42:46.768Z,8.00
2023-11-12T14:47:46.036Z,7.90
2023-11-12T14:50:12.999Z,7.90
2023-11-12T14:52:42.736Z,7.90
2023-11-12T14:55:18.098Z,7.80
2023-11-12T14:57:54.754Z,7.80
2023-11-12T15:00:28.718Z,7.80
2023-11-12T15:02:57.146Z,7.70
2023-11-12T15:05:24.302Z,7.70
2023-11-12T15:07:51.088Z,7.60
2023-11-12T15:10:27.002Z,7.60
2023-11-12T15:12:53.955Z,7.50
2023-11-12T15:15:21.502Z,7.50
2023-11-12T15:17:49.082Z,7.50
2023-11-12T15:20:15.981Z,7.40
2023-11-12T15:22:47.176Z,7.30
2023-11-12T15:25:14.739Z,7.30
2023-11-12T15:27:47.361Z,7.30
2023-11-12T15:30:14.980Z,7.30
2023-11-12T15:32:42.851Z,7.20
2023-11-12T15:35:11.361Z,7.20
2023-11-12T15:37:38.471Z,7.10
2023-11-12T15:40:23.621Z,7.10
2023-11-12T15:42:57.391Z,7.00
2023-11-12T15:45:25.301Z,7.00
2023-11-12T15:47:53.204Z,7.00
2023-11-12T15:50:22.791Z,6.90
2023-11-12T15:52:49.572Z,6.90
2023-11-12T15:55:21.515Z,6.80
2023-11-12T15:57:48.428Z,6.80
2023-11-12T16:00:18.451Z,6.70
2023-11-12T16:02:47.530Z,6.70
2023-11-12T16:05:14.739Z,6.70
2023-11-12T16:07:43.779Z,6.60
2023-11-12T16:10:12.444Z,6.60
2023-11-12T16:12:40.104Z,6.50
2023-11-12T16:15:12.525Z,6.50
2023-11-12T16:17:40.502Z,6.50
2023-11-12T16:20:09.675Z,6.50
2023-11-12T16:22:38.861Z,6.50
2023-11-12T16:25:11.441Z,6.40
2023-11-12T16:27:39.311Z,6.50
2023-11-12T16:30:08.487Z,6.50
2023-11-12T16:32:37.146Z,6.40
2023-11-12T16:35:04.713Z,6.40
2023-11-12T16:37:31.958Z,6.50
2023-11-12T16:40:00.489Z,6.50
2023-11-12T16:42:28.379Z,6.40
2023-11-12T16:44:55.145Z,6.40
2023-11-12T16:47:25.134Z,6.30
2023-11-12T16:49:54.285Z,6.30
2023-11-12T16:52:21.201Z,6.30
2023-11-12T16:54:48.117Z,6.30
2023-11-12T16:57:15.133Z,6.20
2023-11-12T16:59:42.226Z,6.20
2023-11-12T17:02:14.753Z,6.20
2023-11-12T17:04:41.995Z,6.20
2023-11-12T17:07:12.633Z,6.20
2023-11-12T17:09:46.174Z,6.20
2023-11-12T17:12:14.851Z,6.10
2023-11-12T17:14:42.409Z,6.10
2023-11-12T17:17:09.304Z,6.10
2023-11-12T17:19:36.455Z,6.00
2023-11-12T17:22:03.309Z,6.00
2023-11-12T17:24:30.193Z,6.00
2023-11-12T17:26:57.821Z,6.00
2023-11-12T17:29:25.272Z,6.00
2023-11-12T17:31:52.157Z,6.00
2023-11-12T17:34:20.017Z,6.00
2023-11-12T17:36:47.703Z,6.00
2023-11-12T17:39:17.101Z,6.00
2023-11-12T17:41:47.724Z,6.00
2023-11-12T17:44:15.531Z,6.00
2023-11-12T17:46:45.536Z,6.00
2023-11-12T17:49:12.964Z,6.00
2023-11-12T17:51:40.088Z,6.00
2023-11-12T17:54:07.223Z,5.90
2023-11-12T17:56:34.915Z,5.90
2023-11-12T17:59:01.739Z,5.90
2023-11-12T18:01:29.377Z,5.90
2023-11-12T18:03:58.865Z,5.90
2023-11-12T18:06:26.539Z,5.90
2023-11-12T18:08:53.327Z,5.90
2023-11-12T18:11:21.522Z,5.90
2023-11-12T18:13:48.365Z,5.90
2023-11-12T18:16:15.278Z,5.90
2023-11-12T18:18:43.656Z,5.90
2023-11-12T18:21:13.026Z,6.00
2023-11-12T18:23:40.240Z,5.90
2023-11-12T18:26:09.804Z,5.90
2023-11-12T18:28:38.286Z,5.90
2023-11-12T18:31:07.047Z,5.90
2023-11-12T18:33:36.049Z,5.90
2023-11-12T18:36:03.108Z,5.90
2023-11-12T18:38:30.079Z,5.90
2023-11-12T18:40:56.956Z,5.90
2023-11-12T18:43:25.829Z,5.90
2023-11-12T18:45:56.974Z,5.80
2023-11-12T18:48:24.885Z,5.80
2023-11-12T18:50:52.403Z,5.70
2023-11-12T18:53:21.650Z,5.70
2023-11-12T18:55:48.794Z,5.80
2023-11-12T18:58:17.275Z,5.70
2023-11-12T19:00:47.525Z,5.70
2023-11-12T19:03:14.496Z,5.70
2023-11-12T19:05:41.984Z,5.70
2023-11-12T19:08:14.157Z,5.60
2023-11-12T19:10:41.093Z,5.60
2023-11-12T19:13:09.366Z,5.60
2023-11-12T19:15:37.592Z,5.50
2023-11-12T19:18:06.901Z,5.50
2023-11-12T19:20:40.674Z,5.50
2023-11-12T19:23:07.571Z,5.60
2023-11-12T19:25:34.431Z,5.60
2023-11-12T19:28:03.554Z,5.60
2023-11-12T19:30:32.501Z,5.60
2023-11-12T19:33:02.051Z,5.60
2023-11-12T19:35:29.680Z,5.50
2023-11-12T19:37:57.751Z,5.50
2023-11-12T19:40:26.441Z,5.60
2023-11-12T19:42:53.278Z,5.60
2023-11-12T19:45:21.101Z,5.60
2023-11-12T19:47:55.422Z,5.50
2023-11-12T19:50:23.009Z,5.50
2023-11-12T19:52:51.181Z,5.50
2023-11-12T19:55:22.580Z,5.50
2023-11-12T19:57:53.237Z,5.50
2023-11-12T20:00:21.377Z,5.50
2023-11-12T20:02:50.935Z,5.50
2023-11-12T20:05:17.775Z,5.50
2023-11-12T20:07:44.676Z,5.50
2023-11-12T20:10:14.024Z,5.50
2023-11-12T20:12:40.960Z,5.40
2023-11-12T20:15:09.332Z,5.40
2023-11-12T20:17:37.697Z,5.40
2023-11-12T20:20:05.214Z,5.40
2023-11-12T20:22:32.869Z,5.50
2023-11-12T20:24:59.967Z,5.40
2023-11-12T20:27:26.792Z,5.40
2023-11-12T20:29:59.193Z,5.50
2023-11-12T20:32:29.304Z,5.50
2023-11-12T20:34:57.343Z,5.50
2023-11-12T20:37:25.176Z,5.50
2023-11-12T20:39:52.493Z,5.40
2023-11-12T20:42:20.543Z,5.40
2023-11-12T20:44:47.339Z,5.40
2023-11-12T20:47:14.264Z,5.30
2023-11-12T20:49:43.367Z,5.30
2023-11-12T20:52:11.992Z,5.20
2023-11-12T20:54:39.232Z,5.20
2023-11-12T20:57:09.187Z,5.20
2023-11-12T20:59:37.427Z,5.20
2023-11-12T21:02:14.198Z,5.20
2023-11-12T21:04:49.714Z,5.20
2023-11-12T21:07:17.468Z,5.20
2023-11-12T21:09:44.370Z,5.20
2023-11-12T21:12:11.142Z,5.20
2023-11-12T21:14:38.553Z,5.20
2023-11-12T21:17:05.489Z,5.20
2023-11-12T21:19:34.502Z,5.30
2023-11-12T21:22:01.329Z,5.20
2023-11-12T21:24:28.878Z,5.20
2023-11-12T21:26:55.750Z,5.30
2023-11-12T21:29:24.682Z,5.30
2023-11-12T21:31:54.253Z,5.30
2023-11-12T21:34:22.461Z,5.30
2023-11-12T21:36:51.721Z,5.30
2023-11-12T21:39:19.869Z,5.30
2023-11-12T21:41:47.628Z,5.30
2023-11-12T21:44:14.545Z,5.20
2023-11-12T21:46:45.023Z,5.20
2023-11-12T21:49:12.338Z,5.30
2023-11-12T21:51:39.952Z,5.30
2023-11-12T21:54:07.807Z,5.20
2023-11-12T21:56:35.493Z,5.20
2023-11-12T21:59:02.443Z,5.20
2023-11-12T22:01:29.328Z,5.20
2023-11-12T22:03:56.236Z,5.20
2023-11-12T22:06:24.152Z,5.20
2023-11-12T22:08:52.699Z,5.20
2023-11-12T22:11:19.761Z,5.20
2023-11-12T22:13:46.568Z,5.20
2023-11-12T22:16:13.495Z,5.20
2023-11-12T22:18:41.235Z,5.20
2023-11-12T22:21:08.437Z,5.20
2023-11-12T22:23:35.437Z,5.30
2023-11-12T22:26:03.478Z,5.30
2023-11-12T22:28:31.823Z,5.30
2023-11-12T22:30:58.831Z,5.30
2023-11-12T22:33:26.417Z,5.30
2023-11-12T22:35:53.239Z,5.30
2023-11-12T22:38:20.015Z,5.30
2023-11-12T22:40:47.121Z,5.40
2023-11-12T22:43:13.907Z,5.40
2023-11-12T22:45:43.250Z,5.40
2023-11-12T22:48:10.158Z,5.30
2023-11-12T22:50:37.021Z,5.30
2023-11-12T22:53:03.868Z,5.40
2023-11-12T22:55:30.651Z,5.40
2023-11-12T22:57:59.093Z,5.40
2023-11-12T23:00:42.701Z,5.30
2023-11-12T23:03:14.513Z,5.30
2023-11-12T23:05:42.267Z,5.30
2023-11-12T23:08:09.473Z,5.20
2023-11-12T23:10:37.401Z,5.20
2023-11-12T23:13:04.443Z,5.20
2023-11-12T23:15:32.200Z,5.20
2023-11-12T23:17:59.844Z,5.20
2023-11-12T23:20:26.948Z,5.20
2023-11-12T23:22:53.835Z,5.20
2023-11-12T23:25:20.802Z,5.30
2023-11-12T23:27:48.114Z,5.20
2023-11-12T23:30:15.029Z,5.20
2023-11-12T23:32:45.456Z,5.20
2023-11-12T23:35:12.320Z,5.20
2023-11-12T23:37:39.208Z,5.20
2023-11-12T23:40:07.951Z,5.20
2023-11-12T23:42:35.048Z,5.20
2023-11-12T23:45:01.789Z,5.20
2023-11-12T23:47:29.509Z,5.20
2023-11-12T23:49:56.346Z,5.30
2023-11-12T23:52:23.207Z,5.30
2023-11-12T23:54:50.074Z,5.30
2023-11-12T23:57:16.891Z,5.30
2023-11-12T23:59:44.097Z,5.30
